createdAt,value
2019-01-05T00:00:11.202Z,46.58
2019-01-05T00:02:44.059Z,46.44
2019-01-05T00:05:17.209Z,46.01
2019-01-05T00:07:50.578Z,46.01
2019-01-05T00:10:23.271Z,45.79
2019-01-05T00:12:56.449Z,45.41
2019-01-05T00:15:29.457Z,45.27
2019-01-05T00:18:03.873Z,45.33
2019-01-05T00:20:37.646Z,45.10
2019-01-05T00:23:11.001Z,45.59
2019-01-05T00:25:43.970Z,45.43
2019-01-05T00:28:18.178Z,45.70
2019-01-05T00:30:51.515Z,44.92
2019-01-05T00:33:25.214Z,44.74
2019-01-05T00:35:59.465Z,45.04
2019-01-05T00:38:33.816Z,45.04
2019-01-05T00:41:07.258Z,44.15
2019-01-05T00:43:40.574Z,43.98
2019-01-05T00:46:14.272Z,44.10
2019-01-05T00:48:48.385Z,43.44
2019-01-05T00:51:24.015Z,43.44
2019-01-05T00:53:57.592Z,43.49
2019-01-05T00:56:30.791Z,43.01
2019-01-05T00:59:03.817Z,42.28
2019-01-05T01:01:37.243Z,42.81
2019-01-05T01:04:10.281Z,43.94
2019-01-05T01:06:43.251Z,43.94
2019-01-05T01:09:16.334Z,41.99
2019-01-05T01:11:49.461Z,41.92
2019-01-05T01:14:22.397Z,42.26
2019-01-05T01:17:18.150Z,41.81
2019-01-05T01:19:52.265Z,42.08
2019-01-05T01:22:25.960Z,41.50
2019-01-05T01:24:59.366Z,41.32
2019-01-05T01:27:33.478Z,41.77
2019-01-05T01:30:07.690Z,41.59
2019-01-05T01:32:40.959Z,40.49
2019-01-05T01:35:14.275Z,41.03
2019-01-05T01:38:17.051Z,40.35
2019-01-05T01:40:50.111Z,40.22
2019-01-05T01:43:23.364Z,40.66
2019-01-05T01:45:57.474Z,40.65
2019-01-05T01:48:30.657Z,40.34
2019-01-05T01:51:04.650Z,39.63
2019-01-05T01:53:39.213Z,39.26
2019-01-05T01:56:13.884Z,39.72
2019-01-05T01:58:49.537Z,39.00
2019-01-05T02:01:22.803Z,39.21
2019-01-05T02:03:55.965Z,38.89
2019-01-05T02:06:33.821Z,38.67
2019-01-05T02:09:08.189Z,38.66
2019-01-05T02:11:43.414Z,38.04
2019-01-05T02:14:18.588Z,37.31
2019-01-05T02:16:54.377Z,36.52
2019-01-05T02:19:29.756Z,37.18
2019-01-05T02:22:22.103Z,36.88
2019-01-05T02:25:17.372Z,36.63
2019-01-05T02:28:19.636Z,36.92
2019-01-05T02:31:07.393Z,36.18
2019-01-05T02:33:49.017Z,36.58
2019-01-05T02:36:58.089Z,36.59
2019-01-05T02:39:54.409Z,35.91
2019-01-05T02:42:42.254Z,35.63
2019-01-05T02:45:49.695Z,35.35
2019-01-05T02:48:47.474Z,35.55
2019-01-05T02:51:34.866Z,35.87
2019-01-05T02:54:29.971Z,34.92
2019-01-05T02:57:19.869Z,34.92
2019-01-05T03:00:13.671Z,34.46
2019-01-05T03:03:07.171Z,34.11
2019-01-05T03:06:15.950Z,34.59
2019-01-05T03:09:00.893Z,34.38
2019-01-05T03:11:52.272Z,34.38
2019-01-05T03:15:05.026Z,34.28
2019-01-05T03:18:06.303Z,33.21
2019-01-05T03:21:18.639Z,32.87
2019-01-05T03:24:01.558Z,32.07
2019-01-05T03:27:14.955Z,31.10
2019-01-05T03:30:02.735Z,31.27
2019-01-05T03:32:56.804Z,31.02
2019-01-05T03:36:17.837Z,31.82
2019-01-05T03:39:29.041Z,31.82
2019-01-05T03:42:10.132Z,32.11
2019-01-05T03:48:11.935Z,31.91
2019-01-05T03:51:10.997Z,32.35
2019-01-05T03:54:07.772Z,31.98
2019-01-05T03:56:54.328Z,32.30
2019-01-05T04:00:09.244Z,32.10
2019-01-05T04:03:10.018Z,32.41
2019-01-05T04:06:11.613Z,32.03
2019-01-05T04:09:19.102Z,31.57
2019-01-05T04:12:22.873Z,31.56
2019-01-05T04:15:43.532Z,31.54
2019-01-05T04:18:29.326Z,32.07
2019-01-05T04:21:42.971Z,31.41
2019-01-05T04:24:50.520Z,31.44
2019-01-05T04:28:09.966Z,31.55
2019-01-05T04:31:13.775Z,31.07
2019-01-05T04:34:29.052Z,31.44
2019-01-05T04:37:20.614Z,32.82
2019-01-05T04:40:05.963Z,31.58
2019-01-05T04:43:00.607Z,31.37
2019-01-05T04:45:48.197Z,30.81
2019-01-05T04:48:41.592Z,32.06
2019-01-05T04:51:51.561Z,31.04
2019-01-05T04:54:44.771Z,31.57
2019-01-05T04:57:33.149Z,31.85
2019-01-05T05:00:40.862Z,32.73
2019-01-05T05:03:51.407Z,31.58
2019-01-05T05:06:46.617Z,32.82
2019-01-05T05:09:47.346Z,31.91
2019-01-05T05:12:32.072Z,32.20
2019-01-05T05:15:39.168Z,31.13
2019-01-05T05:18:50.720Z,31.45
2019-01-05T05:21:41.920Z,31.80
2019-01-05T05:24:29.158Z,31.76
2019-01-05T05:27:08.458Z,31.41
2019-01-05T05:30:23.915Z,31.97
2019-01-05T05:33:25.617Z,32.82
2019-01-05T05:36:18.782Z,32.38
2019-01-05T05:39:26.996Z,32.07
2019-01-05T05:42:38.828Z,32.84
2019-01-05T05:45:45.900Z,32.18
2019-01-05T05:48:55.131Z,32.54
2019-01-05T05:51:51.574Z,32.32
2019-01-05T05:54:54.320Z,33.11
2019-01-05T05:58:11.800Z,32.89
2019-01-05T06:08:25.289Z,33.20
2019-01-05T06:11:36.467Z,33.11
2019-01-05T06:14:37.250Z,32.83
2019-01-05T06:17:43.156Z,32.99
2019-01-05T06:20:43.858Z,33.07
2019-01-05T06:23:34.903Z,33.04
2019-01-05T06:26:19.960Z,33.78
2019-01-05T06:29:14.920Z,32.61
2019-01-05T06:32:25.094Z,33.36
2019-01-05T06:35:24.312Z,33.46
2019-01-05T06:38:21.063Z,33.66
2019-01-05T06:41:13.319Z,34.27
2019-01-05T06:43:52.295Z,34.29
2019-01-05T06:47:10.329Z,33.78
2019-01-05T06:50:29.785Z,33.59
2019-01-05T06:53:14.265Z,33.42
2019-01-05T06:56:17.439Z,34.38
2019-01-05T06:59:25.133Z,33.83
2019-01-05T07:02:21.733Z,34.34
2019-01-05T07:05:18.812Z,34.74
2019-01-05T07:08:39.264Z,34.92
2019-01-05T07:11:30.678Z,35.16
2019-01-05T07:14:44.235Z,34.25
2019-01-05T07:17:53.242Z,35.15
2019-01-05T07:21:19.164Z,34.81
2019-01-05T07:24:45.556Z,33.94
2019-01-05T07:27:45.102Z,34.58
2019-01-05T07:31:04.938Z,34.50
2019-01-05T07:34:04.062Z,34.96
2019-01-05T07:37:15.432Z,34.32
2019-01-05T07:40:16.506Z,34.38
2019-01-05T07:43:11.134Z,34.87
2019-01-05T07:46:06.441Z,34.62
2019-01-05T07:49:29.095Z,35.11
2019-01-05T07:52:36.975Z,35.16
2019-01-05T07:55:43.721Z,35.60
2019-01-05T07:58:19.635Z,35.57
2019-01-05T08:01:37.471Z,35.62
2019-01-05T08:04:20.425Z,35.52
2019-01-05T08:07:43.531Z,36.04
2019-01-05T08:10:45.312Z,36.17
2019-01-05T08:13:46.446Z,35.61
2019-01-05T08:17:05.728Z,35.63
2019-01-05T08:20:21.976Z,36.27
2019-01-05T08:23:10.063Z,35.99
2019-01-05T08:26:11.108Z,36.21
2019-01-05T08:29:04.970Z,37.19
2019-01-05T08:32:01.545Z,37.35
2019-01-05T08:34:40.224Z,37.94
2019-01-05T08:37:41.356Z,38.44
2019-01-05T08:40:39.547Z,37.84
2019-01-05T08:43:53.430Z,39.05
2019-01-05T08:47:02.396Z,38.94
2019-01-05T08:49:59.254Z,38.12
2019-01-05T08:53:04.857Z,38.37
2019-01-05T08:56:03.321Z,38.37
2019-01-05T08:59:02.507Z,37.73
2019-01-05T09:02:14.151Z,39.55
2019-01-05T09:05:14.800Z,38.32
2019-01-05T09:08:02.248Z,38.14
2019-01-05T09:11:02.307Z,37.89
2019-01-05T09:13:45.959Z,37.87
2019-01-05T09:17:13.460Z,38.31
2019-01-05T09:20:02.906Z,38.65
2019-01-05T09:23:04.960Z,38.83
2019-01-05T09:26:31.626Z,38.67
2019-01-05T09:29:57.359Z,38.62
2019-01-05T09:32:42.855Z,39.02
2019-01-05T09:35:49.335Z,38.63
2019-01-05T09:39:02.394Z,39.14
2019-01-05T09:42:29.658Z,38.73
2019-01-05T09:45:40.485Z,38.89
2019-01-05T09:48:41.919Z,39.31
2019-01-05T09:51:49.689Z,39.27
2019-01-05T09:55:00.419Z,39.40
2019-01-05T09:58:11.723Z,40.36
2019-01-05T10:01:04.367Z,39.99
2019-01-05T10:04:16.677Z,40.60
2019-01-05T10:07:11.244Z,40.27
2019-01-05T10:10:29.453Z,40.31
2019-01-05T10:13:27.203Z,40.30
2019-01-05T10:16:24.872Z,40.21
2019-01-05T10:19:25.835Z,40.34
2019-01-05T10:22:11.887Z,40.40
2019-01-05T10:25:30.202Z,40.57
2019-01-05T10:28:23.061Z,40.83
2019-01-05T10:31:47.683Z,41.75
2019-01-05T10:35:07.490Z,41.34
2019-01-05T10:37:50.193Z,40.98
2019-01-05T10:40:53.305Z,41.60
2019-01-05T10:43:39.957Z,41.41
2019-01-05T10:46:43.121Z,41.36
2019-01-05T10:49:46.608Z,41.25
2019-01-05T10:52:30.600Z,41.33
2019-01-05T10:55:30.865Z,41.53
2019-01-05T10:58:46.154Z,41.36
2019-01-05T11:01:58.143Z,42.03
2019-01-05T11:04:49.302Z,41.96
2019-01-05T11:07:57.389Z,42.82
2019-01-05T11:11:24.441Z,42.35
2019-01-05T11:14:33.286Z,42.50
2019-01-05T11:17:44.603Z,43.63
2019-01-05T11:21:07.787Z,43.16
2019-01-05T11:24:12.128Z,42.36
2019-01-05T11:27:19.937Z,43.03
2019-01-05T11:30:28.498Z,43.50
2019-01-05T11:33:33.520Z,42.72
2019-01-05T11:36:15.780Z,43.21
2019-01-05T11:39:14.490Z,43.04
2019-01-05T11:42:17.866Z,42.98
2019-01-05T11:45:05.330Z,43.06
2019-01-05T11:48:30.190Z,43.36
2019-01-05T11:51:24.890Z,43.09
2019-01-05T11:54:20.406Z,43.60
2019-01-05T11:57:13.460Z,43.13
2019-01-05T12:00:05.848Z,42.51
2019-01-05T12:03:03.064Z,43.19
2019-01-05T12:05:46.766Z,43.36
2019-01-05T12:08:42.551Z,43.21
2019-01-05T12:11:41.025Z,42.83
2019-01-05T12:14:49.791Z,42.82
2019-01-05T12:18:06.288Z,43.31
2019-01-05T12:21:30.944Z,43.01
2019-01-05T12:24:32.233Z,42.71
2019-01-05T12:27:36.693Z,44.07
2019-01-05T12:30:47.847Z,43.50
2019-01-05T12:33:59.970Z,43.52
2019-01-05T12:37:02.646Z,43.94
2019-01-05T12:39:57.200Z,43.90
2019-01-05T12:42:53.718Z,43.82
2019-01-05T12:45:38.856Z,44.27
2019-01-05T12:48:50.900Z,43.86
2019-01-05T12:51:56.887Z,44.49
2019-01-05T12:54:53.431Z,44.61
2019-01-05T12:58:05.256Z,44.09
2019-01-05T13:01:08.154Z,43.39
2019-01-05T13:04:22.756Z,43.49
2019-01-05T13:07:10.576Z,44.13
2019-01-05T13:10:05.875Z,43.86
2019-01-05T13:13:15.324Z,43.61
2019-01-05T13:16:33.254Z,43.86
2019-01-05T13:19:51.189Z,44.11
2019-01-05T13:23:15.367Z,44.47
2019-01-05T13:26:29.432Z,44.83
2019-01-05T13:29:08.968Z,44.99
2019-01-05T13:32:21.704Z,44.71
2019-01-05T13:35:18.335Z,45.51
2019-01-05T13:38:53.570Z,45.53
2019-01-05T13:42:12.348Z,44.95
2019-01-05T13:45:18.542Z,45.65
2019-01-05T13:48:10.283Z,46.07
2019-01-05T13:51:24.262Z,45.30
2019-01-05T13:53:56.852Z,45.34
2019-01-05T13:56:32.419Z,46.52
2019-01-05T13:59:07.540Z,46.40
2019-01-05T14:01:41.879Z,46.09
2019-01-05T14:04:26.420Z,45.78
2019-01-05T14:07:00.935Z,46.00
2019-01-05T14:09:42.244Z,45.79
2019-01-05T14:12:17.171Z,45.68
2019-01-05T14:14:57.925Z,45.43
2019-01-05T14:17:33.217Z,45.48
2019-01-05T14:20:11.955Z,45.41
2019-01-05T14:22:46.570Z,45.58
2019-01-05T14:25:22.055Z,45.92
2019-01-05T14:27:57.337Z,45.86
2019-01-05T14:30:31.617Z,45.65
2019-01-05T14:33:06.931Z,45.53
2019-01-05T14:35:41.062Z,45.15
2019-01-05T14:38:16.491Z,45.39
2019-01-05T14:40:50.358Z,45.39
2019-01-05T14:43:24.629Z,44.82
2019-01-05T14:45:58.732Z,45.36
2019-01-05T14:48:32.756Z,46.13
2019-01-05T14:51:06.223Z,46.26
2019-01-05T14:53:40.096Z,46.25
2019-01-05T14:56:14.052Z,45.60
2019-01-05T14:58:48.039Z,46.11
2019-01-05T15:01:21.542Z,45.62
2019-01-05T15:03:56.386Z,45.81
2019-01-05T15:06:30.157Z,45.71
2019-01-05T15:09:03.867Z,46.35
2019-01-05T15:11:37.424Z,46.39
2019-01-05T15:14:10.842Z,47.03
2019-01-05T15:16:45.091Z,46.54
2019-01-05T15:19:18.899Z,47.12
2019-01-05T15:21:52.862Z,46.96
2019-01-05T15:24:26.294Z,47.16
2019-01-05T15:27:00.074Z,46.73
2019-01-05T15:29:33.974Z,46.88
2019-01-05T15:32:07.831Z,46.43
2019-01-05T15:34:41.414Z,46.91
2019-01-05T15:37:15.179Z,47.07
2019-01-05T15:39:49.160Z,47.05
2019-01-05T15:42:23.181Z,46.80
2019-01-05T15:44:56.855Z,47.23
2019-01-05T15:47:32.536Z,49.28
2019-01-05T15:50:06.994Z,49.28
2019-01-05T15:52:40.499Z,48.58
2019-01-05T15:55:14.103Z,49.66
2019-01-05T15:57:47.363Z,49.38
2019-01-05T16:00:21.419Z,49.88
2019-01-05T16:02:55.149Z,49.71
2019-01-05T16:05:28.916Z,49.20
2019-01-05T16:08:03.085Z,49.51
2019-01-05T16:10:37.925Z,49.14
2019-01-05T16:13:11.368Z,48.84
2019-01-05T16:15:45.037Z,48.84
2019-01-05T16:18:19.162Z,48.74
2019-01-05T16:20:53.679Z,48.90
2019-01-05T16:23:28.551Z,49.65
2019-01-05T16:26:01.918Z,49.74
2019-01-05T16:28:38.920Z,49.96
2019-01-05T16:31:13.536Z,49.99
2019-01-05T16:33:47.533Z,49.71
2019-01-05T16:36:21.082Z,50.06
2019-01-05T16:38:55.539Z,50.23
2019-01-05T16:41:32.117Z,50.48
2019-01-05T16:44:05.943Z,50.56
2019-01-05T16:46:40.243Z,50.68
2019-01-05T16:49:14.130Z,50.06
2019-01-05T16:51:47.424Z,50.73
2019-01-05T16:54:20.992Z,51.18
2019-01-05T16:56:54.175Z,50.94
2019-01-05T16:59:27.355Z,51.31
2019-01-05T17:02:03.526Z,51.02
2019-01-05T17:04:37.319Z,50.96
2019-01-05T17:07:10.353Z,51.49
2019-01-05T17:09:43.872Z,51.29
2019-01-05T17:12:17.112Z,51.44
2019-01-05T17:14:50.823Z,51.63
2019-01-05T17:17:24.071Z,51.18
2019-01-05T17:19:57.095Z,51.47
2019-01-05T17:22:32.054Z,52.05
2019-01-05T17:25:10.995Z,52.98
2019-01-05T17:27:44.562Z,53.07
2019-01-05T17:30:17.791Z,53.29
2019-01-05T17:32:51.173Z,52.88
2019-01-05T17:35:24.488Z,53.03
2019-01-05T17:37:58.099Z,52.98
2019-01-05T17:40:31.441Z,52.79
2019-01-05T17:43:04.570Z,53.17
2019-01-05T17:45:39.319Z,53.29
2019-01-05T17:48:12.550Z,53.15
2019-01-05T17:50:47.046Z,53.52
2019-01-05T17:53:21.822Z,53.29
2019-01-05T17:55:55.684Z,53.81
2019-01-05T17:58:30.409Z,54.02
2019-01-05T18:01:03.857Z,53.78
2019-01-05T18:03:37.042Z,53.99
2019-01-05T18:06:10.930Z,54.06
2019-01-05T18:08:44.188Z,53.87
2019-01-05T18:11:17.551Z,54.16
2019-01-05T18:13:50.771Z,54.34
2019-01-05T18:16:24.409Z,54.60
2019-01-05T18:18:58.926Z,54.30
2019-01-05T18:21:32.449Z,54.16
2019-01-05T18:24:06.258Z,54.63
2019-01-05T18:26:39.565Z,54.55
2019-01-05T18:29:18.453Z,54.92
2019-01-05T18:31:51.820Z,54.76
2019-01-05T18:34:24.830Z,54.56
2019-01-05T18:36:59.338Z,54.92
2019-01-05T18:39:32.426Z,55.33
2019-01-05T18:42:05.756Z,55.08
2019-01-05T18:44:39.186Z,54.60
2019-01-05T18:47:13.656Z,55.07
2019-01-05T18:49:46.622Z,55.15
2019-01-05T18:52:24.984Z,55.13
2019-01-05T18:54:54.945Z,55.12
2019-01-05T18:57:28.023Z,55.22
2019-01-05T19:00:02.105Z,55.25
2019-01-05T19:02:35.133Z,55.10
2019-01-05T19:05:08.544Z,55.06
2019-01-05T19:07:41.705Z,55.75
2019-01-05T19:10:15.234Z,55.82
2019-01-05T19:12:48.597Z,56.18
2019-01-05T19:15:21.678Z,55.83
2019-01-05T19:17:54.874Z,55.58
2019-01-05T19:20:27.966Z,56.28
2019-01-05T19:23:01.020Z,56.55
2019-01-05T19:25:34.608Z,56.29
2019-01-05T19:28:08.063Z,56.90
2019-01-05T19:30:41.093Z,56.83
2019-01-05T19:33:14.285Z,56.80
2019-01-05T19:35:47.271Z,56.70
2019-01-05T19:38:21.218Z,56.67
2019-01-05T19:40:54.252Z,56.08
2019-01-05T19:43:27.425Z,56.37
2019-01-05T19:46:00.502Z,55.88
2019-01-05T19:48:33.487Z,56.14
2019-01-05T19:51:06.695Z,56.56
2019-01-05T19:53:43.344Z,56.70
2019-01-05T19:56:16.584Z,56.64
2019-01-05T19:58:49.685Z,56.59
2019-01-05T20:01:22.684Z,56.84
2019-01-05T20:03:58.022Z,56.41
2019-01-05T20:06:32.316Z,57.26
2019-01-05T20:09:06.355Z,57.26
2019-01-05T20:11:39.196Z,56.92
2019-01-05T20:14:12.229Z,57.50
2019-01-05T20:16:45.297Z,57.53
2019-01-05T20:19:18.371Z,57.52
2019-01-05T20:21:52.479Z,57.46
2019-01-05T20:24:25.596Z,56.66
2019-01-05T20:26:58.648Z,56.81
2019-01-05T20:29:31.619Z,57.41
2019-01-05T20:32:04.847Z,57.52
2019-01-05T20:34:37.892Z,57.75
2019-01-05T20:37:11.146Z,57.71
2019-01-05T20:39:45.850Z,57.14
2019-01-05T20:42:18.521Z,56.95
2019-01-05T20:44:51.795Z,57.59
2019-01-05T20:47:25.027Z,57.63
2019-01-05T20:49:58.136Z,57.50
2019-01-05T20:52:31.256Z,57.25
2019-01-05T20:55:04.410Z,56.97
2019-01-05T20:57:37.422Z,56.89
2019-01-05T21:00:11.438Z,56.86
2019-01-05T21:02:45.013Z,56.85
2019-01-05T21:05:18.074Z,57.28
2019-01-05T21:07:50.920Z,57.41
2019-01-05T21:10:24.157Z,57.78
2019-01-05T21:13:01.870Z,58.11
2019-01-05T21:15:35.062Z,57.82
2019-01-05T21:18:08.397Z,58.30
2019-01-05T21:20:45.319Z,57.87
2019-01-05T21:23:19.789Z,57.69
2019-01-05T21:25:52.818Z,58.18
2019-01-05T21:28:25.873Z,58.60
2019-01-05T21:30:59.249Z,58.13
2019-01-05T21:33:32.919Z,58.10
2019-01-05T21:36:05.992Z,58.25
2019-01-05T21:38:39.261Z,58.30
2019-01-05T21:41:12.347Z,58.59
2019-01-05T21:43:47.168Z,58.50
2019-01-05T21:46:20.208Z,58.68
2019-01-05T21:48:53.222Z,59.11
2019-01-05T21:51:26.105Z,58.70
2019-01-05T21:54:00.420Z,58.63
2019-01-05T21:56:34.600Z,58.69
2019-01-05T21:59:08.123Z,59.16
2019-01-05T22:01:41.903Z,59.23
2019-01-05T22:04:15.041Z,59.20
2019-01-05T22:06:48.011Z,58.94
2019-01-05T22:09:20.987Z,59.01
2019-01-05T22:15:06.513Z,59.34
2019-01-05T22:17:36.164Z,59.68
2019-01-05T22:20:09.721Z,59.71
2019-01-05T22:22:43.819Z,60.30
2019-01-05T22:25:16.956Z,59.87
2019-01-05T22:27:50.084Z,59.34
2019-01-05T22:30:23.205Z,59.68
2019-01-05T22:32:56.175Z,59.95
2019-01-05T22:35:29.363Z,59.56
2019-01-05T22:38:04.572Z,59.54
2019-01-05T22:40:38.677Z,59.71
2019-01-05T22:43:11.811Z,60.14
2019-01-05T22:45:44.872Z,59.70
2019-01-05T22:48:17.763Z,59.54
2019-01-05T22:50:51.937Z,59.91
2019-01-05T22:53:24.930Z,59.63
2019-01-05T22:55:57.943Z,59.99
2019-01-05T22:58:31.062Z,60.29
2019-01-05T23:01:04.317Z,60.21
2019-01-05T23:03:39.470Z,59.99
2019-01-05T23:06:12.562Z,60.07
2019-01-05T23:08:45.610Z,59.92
2019-01-05T23:11:19.140Z,59.93
2019-01-05T23:13:52.364Z,59.81
2019-01-05T23:16:25.854Z,60.09
2019-01-05T23:18:58.864Z,60.22
2019-01-05T23:21:31.797Z,60.81
2019-01-05T23:24:04.772Z,61.77
2019-01-05T23:26:38.011Z,62.26
2019-01-05T23:29:30.326Z,61.79
2019-01-05T23:32:04.364Z,61.23
2019-01-05T23:34:37.749Z,61.14
2019-01-05T23:37:10.681Z,60.71
2019-01-05T23:39:43.965Z,60.45
2019-01-05T23:42:17.068Z,59.72
2019-01-05T23:44:50.313Z,59.24
2019-01-05T23:47:23.380Z,58.92
2019-01-05T23:49:56.273Z,59.06
2019-01-05T23:52:29.160Z,58.37
2019-01-05T23:55:02.499Z,58.67
2019-01-05T23:57:35.576Z,58.58
